Home PIREPS Pireps

Flight WIN1004

  • Submitted By: Vincent Fourni
  • Departure Airport: Bruxelles National (EBBR)
  • Arrival Airport: airport Innsbruck (LOWI)
  • Aircraft: YOUR CHOICE (YC)
  • Flight Time: 01.35
  • Date Submitted: 19/12/2017
  • Status: Accepted
Flight Details
Gross Revenue:
(25 load / € 0.00 per unit
€ 0.00
Fuel Cost:
(3447 fuel used @ 5.1 / unit)
€ 17,579.70

Additional Log Information:

View Log

Aircraft Used in flight is PMDG 737-800NGX Brussels Airlines Winglets
09:10 Brakes are On
09:12 Brakes are Released
09:14 Brakes are On
09:16 Brakes are Released
09:22 You Took off @ 164 Knots and Flaps at Position 3
Departure Weather
EBBR 190750Z 25004KT 0800 R25L/P2000N R25R/1400N R01/P2000N BCFG SCT004 04/03 Q1034 TEMPO 0800 BCFGrn
09:22 Landing Gear Up @ 160 Knots and 1560 Feet
09:25 Above FL100 you need to switch of the landing lights
10:36 Landing Gear Down @ 192 Knots and 9470 Feet
10:44 You Landed @ 109 Knots and with -550 Vertical Speed
Arrival Weather
LOWI 190920Z 27007KT 9999 FEW035 BKN070 M04/M06 Q1033 R08/19//95 NOSIGrn
10:44 Your Landing was very hard
10:44 Paused
10:46 Unpaused
10:46 Paused
10:46 Brakes are On
10:46 Unpaused
10:47 Brussels Bel-Track1.0.1.2

Route Map

Corporate About Us Our Team Vacancies Information Fleet Route Network Rules and Regulations Operations Flight Schedules Event Center Tours Partners IVAO Vatsim Acars dev FSCB

fb Users Online Belgium Dominique Dory, South Africa Marc Toussaint,
2 Pilot(s) and 135 Guest(s) Online
CMS by phpVMS - Design by Crazycreatives.com - Copyright © 2020 - Brussels Airlines Virtual